sensor_id;sensor_type;location;lat;lon;timestamp;temperature;humidity
44767;DHT22;30487;48.716;9.272;2023-01-23T00:01:21;1.20;99.90
44767;DHT22;30487;48.716;9.272;2023-01-23T00:03:49;1.20;99.90
44767;DHT22;30487;48.716;9.272;2023-01-23T00:06:15;1.20;99.90
44767;DHT22;30487;48.716;9.272;2023-01-23T00:08:44;1.20;99.90
44767;DHT22;30487;48.716;9.272;2023-01-23T00:11:17;1.20;99.90
44767;DHT22;30487;48.716;9.272;2023-01-23T00:13:43;1.10;99.90
44767;DHT22;30487;48.716;9.272;2023-01-23T00:16:35;1.10;99.90
44767;DHT22;30487;48.716;9.272;2023-01-23T00:19:00;1.10;99.90
44767;DHT22;30487;48.716;9.272;2023-01-23T00:21:27;1.10;99.90
44767;DHT22;30487;48.716;9.272;2023-01-23T00:23:55;1.10;99.90
44767;DHT22;30487;48.716;9.272;2023-01-23T00:26:23;1.10;99.90
44767;DHT22;30487;48.716;9.272;2023-01-23T00:28:49;1.00;99.90
44767;DHT22;30487;48.716;9.272;2023-01-23T00:31:27;1.10;99.90
44767;DHT22;30487;48.716;9.272;2023-01-23T00:33:55;1.10;99.90
44767;DHT22;30487;48.716;9.272;2023-01-23T00:36:21;1.10;99.90
44767;DHT22;30487;48.716;9.272;2023-01-23T00:38:47;1.10;99.90
44767;DHT22;30487;48.716;9.272;2023-01-23T00:41:12;1.10;99.90
44767;DHT22;30487;48.716;9.272;2023-01-23T00:43:38;1.10;99.90
44767;DHT22;30487;48.716;9.272;2023-01-23T00:46:04;1.10;99.90
44767;DHT22;30487;48.716;9.272;2023-01-23T00:48:29;1.10;99.90
44767;DHT22;30487;48.716;9.272;2023-01-23T00:50:55;1.10;99.90
44767;DHT22;30487;48.716;9.272;2023-01-23T00:53:21;1.10;99.90
44767;DHT22;30487;48.716;9.272;2023-01-23T00:55:47;1.10;99.90
44767;DHT22;30487;48.716;9.272;2023-01-23T00:58:13;1.10;99.90
44767;DHT22;30487;48.716;9.272;2023-01-23T01:00:39;1.20;99.90
44767;DHT22;30487;48.716;9.272;2023-01-23T01:03:05;1.20;99.90
44767;DHT22;30487;48.716;9.272;2023-01-23T01:05:31;1.20;99.90
44767;DHT22;30487;48.716;9.272;2023-01-23T01:07:57;1.20;99.90
44767;DHT22;30487;48.716;9.272;2023-01-23T01:10:23;1.20;99.90
44767;DHT22;30487;48.716;9.272;2023-01-23T01:12:56;1.20;99.90
44767;DHT22;30487;48.716;9.272;2023-01-23T01:15:22;1.20;99.90
44767;DHT22;30487;48.716;9.272;2023-01-23T01:17:48;1.20;99.90
44767;DHT22;30487;48.716;9.272;2023-01-23T01:20:14;1.20;99.90
44767;DHT22;30487;48.716;9.272;2023-01-23T01:22:40;1.20;99.90
44767;DHT22;30487;48.716;9.272;2023-01-23T01:25:06;1.20;99.90
44767;DHT22;30487;48.716;9.272;2023-01-23T01:27:31;1.20;99.90
44767;DHT22;30487;48.716;9.272;2023-01-23T01:29:57;1.20;99.90
44767;DHT22;30487;48.716;9.272;2023-01-23T01:32:23;1.20;99.90
44767;DHT22;30487;48.716;9.272;2023-01-23T01:34:51;1.20;99.90
44767;DHT22;30487;48.716;9.272;2023-01-23T01:37:16;1.20;99.90
44767;DHT22;30487;48.716;9.272;2023-01-23T01:39:42;1.30;99.90
44767;DHT22;30487;48.716;9.272;2023-01-23T01:42:08;1.20;99.90
44767;DHT22;30487;48.716;9.272;2023-01-23T01:44:55;1.20;99.90
44767;DHT22;30487;48.716;9.272;2023-01-23T01:47:21;1.20;99.90
44767;DHT22;30487;48.716;9.272;2023-01-23T01:49:47;1.20;99.90
44767;DHT22;30487;48.716;9.272;2023-01-23T01:52:13;1.20;99.90
44767;DHT22;30487;48.716;9.272;2023-01-23T01:54:50;1.20;99.90
44767;DHT22;30487;48.716;9.272;2023-01-23T01:57:28;1.20;99.90
44767;DHT22;30487;48.716;9.272;2023-01-23T02:00:16;1.20;99.90
44767;DHT22;30487;48.716;9.272;2023-01-23T02:05:17;1.20;99.90
44767;DHT22;30487;48.716;9.272;2023-01-23T02:10:12;1.20;99.90
44767;DHT22;30487;48.716;9.272;2023-01-23T02:12:38;1.20;99.90
44767;DHT22;30487;48.716;9.272;2023-01-23T02:15:06;1.20;99.90
44767;DHT22;30487;48.716;9.272;2023-01-23T02:17:33;1.20;99.90
44767;DHT22;30487;48.716;9.272;2023-01-23T02:20:19;1.30;99.90
44767;DHT22;30487;48.716;9.272;2023-01-23T02:25:38;1.20;99.90
44767;DHT22;30487;48.716;9.272;2023-01-23T02:28:06;1.30;99.90
44767;DHT22;30487;48.716;9.272;2023-01-23T02:30:32;1.30;99.90
44767;DHT22;30487;48.716;9.272;2023-01-23T02:35:37;1.30;99.90
44767;DHT22;30487;48.716;9.272;2023-01-23T02:38:05;1.30;99.90
44767;DHT22;30487;48.716;9.272;2023-01-23T02:40:33;1.30;99.90
44767;DHT22;30487;48.716;9.272;2023-01-23T02:43:02;1.30;99.90
44767;DHT22;30487;48.716;9.272;2023-01-23T02:45:28;1.30;99.90
44767;DHT22;30487;48.716;9.272;2023-01-23T02:47:55;1.30;99.90
44767;DHT22;30487;48.716;9.272;2023-01-23T02:50:20;1.30;99.90
44767;DHT22;30487;48.716;9.272;2023-01-23T02:52:46;1.30;99.90
44767;DHT22;30487;48.716;9.272;2023-01-23T02:55:14;1.30;99.90
44767;DHT22;30487;48.716;9.272;2023-01-23T02:57:39;1.30;99.90
44767;DHT22;30487;48.716;9.272;2023-01-23T03:00:05;1.30;99.90
44767;DHT22;30487;48.716;9.272;2023-01-23T03:02:40;1.30;99.90
44767;DHT22;30487;48.716;9.272;2023-01-23T03:05:06;1.30;99.90
44767;DHT22;30487;48.716;9.272;2023-01-23T03:07:32;1.30;99.90
44767;DHT22;30487;48.716;9.272;2023-01-23T03:09:57;1.30;99.90
44767;DHT22;30487;48.716;9.272;2023-01-23T03:12:23;1.30;99.90
44767;DHT22;30487;48.716;9.272;2023-01-23T03:14:48;1.30;99.90
44767;DHT22;30487;48.716;9.272;2023-01-23T03:17:18;1.30;99.90
44767;DHT22;30487;48.716;9.272;2023-01-23T03:19:44;1.30;99.90
44767;DHT22;30487;48.716;9.272;2023-01-23T03:22:09;1.30;99.90
44767;DHT22;30487;48.716;9.272;2023-01-23T03:24:35;1.30;99.90
44767;DHT22;30487;48.716;9.272;2023-01-23T03:27:01;1.30;99.90
44767;DHT22;30487;48.716;9.272;2023-01-23T03:29:26;1.30;99.90
44767;DHT22;30487;48.716;9.272;2023-01-23T03:32:12;1.30;99.90
44767;DHT22;30487;48.716;9.272;2023-01-23T03:34:39;1.30;99.90
44767;DHT22;30487;48.716;9.272;2023-01-23T03:37:06;1.30;99.90
44767;DHT22;30487;48.716;9.272;2023-01-23T03:39:34;1.30;99.90
44767;DHT22;30487;48.716;9.272;2023-01-23T03:42:18;1.30;99.90
44767;DHT22;30487;48.716;9.272;2023-01-23T03:44:45;1.30;99.90
44767;DHT22;30487;48.716;9.272;2023-01-23T03:47:10;1.30;99.90
44767;DHT22;30487;48.716;9.272;2023-01-23T03:49:36;1.30;99.90
44767;DHT22;30487;48.716;9.272;2023-01-23T03:52:02;1.30;99.90
44767;DHT22;30487;48.716;9.272;2023-01-23T03:54:28;1.30;99.90
44767;DHT22;30487;48.716;9.272;2023-01-23T03:56:53;1.30;99.90
44767;DHT22;30487;48.716;9.272;2023-01-23T03:59:19;1.30;99.90
44767;DHT22;30487;48.716;9.272;2023-01-23T04:01:45;1.30;99.90
44767;DHT22;30487;48.716;9.272;2023-01-23T04:04:12;1.30;99.90
44767;DHT22;30487;48.716;9.272;2023-01-23T04:06:37;1.30;99.90
44767;DHT22;30487;48.716;9.272;2023-01-23T04:09:03;1.30;99.90
44767;DHT22;30487;48.716;9.272;2023-01-23T04:11:29;1.30;99.90
44767;DHT22;30487;48.716;9.272;2023-01-23T04:13:54;1.30;99.90
44767;DHT22;30487;48.716;9.272;2023-01-23T04:16:20;1.30;99.90
44767;DHT22;30487;48.716;9.272;2023-01-23T04:18:50;1.30;99.90
44767;DHT22;30487;48.716;9.272;2023-01-23T04:21:16;1.30;99.90
44767;DHT22;30487;48.716;9.272;2023-01-23T04:23:42;1.30;99.90
44767;DHT22;30487;48.716;9.272;2023-01-23T04:26:07;1.30;99.90
44767;DHT22;30487;48.716;9.272;2023-01-23T04:28:33;1.30;99.90
44767;DHT22;30487;48.716;9.272;2023-01-23T04:30:58;1.40;99.90
44767;DHT22;30487;48.716;9.272;2023-01-23T04:33:24;1.30;99.90
44767;DHT22;30487;48.716;9.272;2023-01-23T04:35:51;1.40;99.90
44767;DHT22;30487;48.716;9.272;2023-01-23T04:38:17;1.40;99.90
44767;DHT22;30487;48.716;9.272;2023-01-23T04:40:43;1.30;99.90
44767;DHT22;30487;48.716;9.272;2023-01-23T04:43:10;1.40;99.90
44767;DHT22;30487;48.716;9.272;2023-01-23T04:45:35;1.30;99.90
44767;DHT22;30487;48.716;9.272;2023-01-23T04:48:01;1.40;99.90
44767;DHT22;30487;48.716;9.272;2023-01-23T04:50:26;1.30;99.90
44767;DHT22;30487;48.716;9.272;2023-01-23T04:52:52;1.40;99.90
44767;DHT22;30487;48.716;9.272;2023-01-23T04:55:18;1.30;99.90
44767;DHT22;30487;48.716;9.272;2023-01-23T04:57:43;1.40;99.90
44767;DHT22;30487;48.716;9.272;2023-01-23T05:00:09;1.40;99.90
44767;DHT22;30487;48.716;9.272;2023-01-23T05:02:35;1.40;99.90
44767;DHT22;30487;48.716;9.272;2023-01-23T05:05:01;1.40;99.90
44767;DHT22;30487;48.716;9.272;2023-01-23T05:07:26;1.40;99.90
44767;DHT22;30487;48.716;9.272;2023-01-23T05:09:52;1.40;99.90
44767;DHT22;30487;48.716;9.272;2023-01-23T05:12:18;1.40;99.90
44767;DHT22;30487;48.716;9.272;2023-01-23T05:14:43;1.30;99.90
44767;DHT22;30487;48.716;9.272;2023-01-23T05:17:09;1.30;99.90
44767;DHT22;30487;48.716;9.272;2023-01-23T05:19:34;1.30;99.90
44767;DHT22;30487;48.716;9.272;2023-01-23T05:22:00;1.40;99.90
44767;DHT22;30487;48.716;9.272;2023-01-23T05:24:26;1.30;99.90
44767;DHT22;30487;48.716;9.272;2023-01-23T05:26:51;1.40;99.90
44767;DHT22;30487;48.716;9.272;2023-01-23T05:29:17;1.40;99.90
44767;DHT22;30487;48.716;9.272;2023-01-23T05:31:42;1.40;99.90
44767;DHT22;30487;48.716;9.272;2023-01-23T05:34:08;1.40;99.90
44767;DHT22;30487;48.716;9.272;2023-01-23T05:36:33;1.40;99.90
44767;DHT22;30487;48.716;9.272;2023-01-23T05:38:59;1.30;99.90
44767;DHT22;30487;48.716;9.272;2023-01-23T05:41:25;1.30;99.90
44767;DHT22;30487;48.716;9.272;2023-01-23T05:43:50;1.40;99.90
44767;DHT22;30487;48.716;9.272;2023-01-23T05:46:16;1.40;99.90
44767;DHT22;30487;48.716;9.272;2023-01-23T05:48:42;1.40;99.90
44767;DHT22;30487;48.716;9.272;2023-01-23T05:51:07;1.40;99.90
44767;DHT22;30487;48.716;9.272;2023-01-23T05:53:33;1.30;99.90
44767;DHT22;30487;48.716;9.272;2023-01-23T05:55:58;1.40;99.90
44767;DHT22;30487;48.716;9.272;2023-01-23T05:58:24;1.30;99.90
44767;DHT22;30487;48.716;9.272;2023-01-23T06:00:49;1.40;99.90
44767;DHT22;30487;48.716;9.272;2023-01-23T06:03:15;1.40;99.90
44767;DHT22;30487;48.716;9.272;2023-01-23T06:05:41;1.40;99.90
44767;DHT22;30487;48.716;9.272;2023-01-23T06:08:07;1.40;99.90
44767;DHT22;30487;48.716;9.272;2023-01-23T06:10:32;1.40;99.90
44767;DHT22;30487;48.716;9.272;2023-01-23T06:13:00;1.40;99.90
44767;DHT22;30487;48.716;9.272;2023-01-23T06:15:25;1.40;99.90
44767;DHT22;30487;48.716;9.272;2023-01-23T06:17:51;1.40;99.90
44767;DHT22;30487;48.716;9.272;2023-01-23T06:20:17;1.30;99.90
44767;DHT22;30487;48.716;9.272;2023-01-23T06:22:42;1.30;99.90
44767;DHT22;30487;48.716;9.272;2023-01-23T06:25:08;1.40;99.90
44767;DHT22;30487;48.716;9.272;2023-01-23T06:27:34;1.40;99.90
44767;DHT22;30487;48.716;9.272;2023-01-23T06:29:59;1.40;99.90
44767;DHT22;30487;48.716;9.272;2023-01-23T06:32:25;1.40;99.90
44767;DHT22;30487;48.716;9.272;2023-01-23T06:34:51;1.40;99.90
44767;DHT22;30487;48.716;9.272;2023-01-23T06:37:16;1.40;99.90
44767;DHT22;30487;48.716;9.272;2023-01-23T06:39:42;1.50;99.90
44767;DHT22;30487;48.716;9.272;2023-01-23T06:42:08;1.50;99.90
44767;DHT22;30487;48.716;9.272;2023-01-23T06:44:35;1.50;99.90
44767;DHT22;30487;48.716;9.272;2023-01-23T06:47:01;1.50;99.90
44767;DHT22;30487;48.716;9.272;2023-01-23T06:49:27;1.50;99.90
44767;DHT22;30487;48.716;9.272;2023-01-23T06:51:52;1.50;99.90
44767;DHT22;30487;48.716;9.272;2023-01-23T06:54:18;1.50;99.90
44767;DHT22;30487;48.716;9.272;2023-01-23T06:56:44;1.50;99.90
44767;DHT22;30487;48.716;9.272;2023-01-23T06:59:09;1.50;99.90
44767;DHT22;30487;48.716;9.272;2023-01-23T07:01:35;1.40;99.90
44767;DHT22;30487;48.716;9.272;2023-01-23T07:04:01;1.40;99.90
44767;DHT22;30487;48.716;9.272;2023-01-23T07:06:26;1.40;99.90
44767;DHT22;30487;48.716;9.272;2023-01-23T07:08:52;1.50;99.90
44767;DHT22;30487;48.716;9.272;2023-01-23T07:11:17;1.50;99.90
44767;DHT22;30487;48.716;9.272;2023-01-23T07:13:43;1.40;99.90
44767;DHT22;30487;48.716;9.272;2023-01-23T07:16:09;1.50;99.90
44767;DHT22;30487;48.716;9.272;2023-01-23T07:18:34;1.50;99.90
44767;DHT22;30487;48.716;9.272;2023-01-23T07:21:03;1.50;99.90
44767;DHT22;30487;48.716;9.272;2023-01-23T07:23:29;1.50;99.90
44767;DHT22;30487;48.716;9.272;2023-01-23T07:25:59;1.50;99.90
44767;DHT22;30487;48.716;9.272;2023-01-23T07:28:25;1.50;99.90
44767;DHT22;30487;48.716;9.272;2023-01-23T07:30:51;1.50;99.90
44767;DHT22;30487;48.716;9.272;2023-01-23T07:33:17;1.50;99.90
44767;DHT22;30487;48.716;9.272;2023-01-23T07:35:42;1.50;99.90
44767;DHT22;30487;48.716;9.272;2023-01-23T07:38:08;1.50;99.90
44767;DHT22;30487;48.716;9.272;2023-01-23T07:40:33;1.40;99.90
44767;DHT22;30487;48.716;9.272;2023-01-23T07:42:59;1.40;99.90
44767;DHT22;30487;48.716;9.272;2023-01-23T07:45:24;1.50;99.90
44767;DHT22;30487;48.716;9.272;2023-01-23T07:47:50;1.50;99.90
44767;DHT22;30487;48.716;9.272;2023-01-23T07:50:16;1.50;99.90
44767;DHT22;30487;48.716;9.272;2023-01-23T07:52:42;1.50;99.90
44767;DHT22;30487;48.716;9.272;2023-01-23T07:55:07;1.50;99.90
44767;DHT22;30487;48.716;9.272;2023-01-23T07:57:33;1.50;99.90
44767;DHT22;30487;48.716;9.272;2023-01-23T07:59:59;1.50;99.90
44767;DHT22;30487;48.716;9.272;2023-01-23T08:02:24;1.60;99.90
44767;DHT22;30487;48.716;9.272;2023-01-23T08:04:50;1.60;99.90
44767;DHT22;30487;48.716;9.272;2023-01-23T08:07:16;1.60;99.90
44767;DHT22;30487;48.716;9.272;2023-01-23T08:09:41;1.60;99.90
44767;DHT22;30487;48.716;9.272;2023-01-23T08:12:07;1.60;99.90
44767;DHT22;30487;48.716;9.272;2023-01-23T08:14:32;1.70;99.90
44767;DHT22;30487;48.716;9.272;2023-01-23T08:16:58;1.70;99.90
44767;DHT22;30487;48.716;9.272;2023-01-23T08:19:25;1.70;99.90
44767;DHT22;30487;48.716;9.272;2023-01-23T08:21:51;1.70;99.90
44767;DHT22;30487;48.716;9.272;2023-01-23T08:24:17;1.70;99.90
44767;DHT22;30487;48.716;9.272;2023-01-23T08:26:43;1.70;99.90
44767;DHT22;30487;48.716;9.272;2023-01-23T08:29:09;1.70;99.90
44767;DHT22;30487;48.716;9.272;2023-01-23T08:31:35;1.70;99.90
44767;DHT22;30487;48.716;9.272;2023-01-23T08:34:01;1.70;99.90
44767;DHT22;30487;48.716;9.272;2023-01-23T08:36:27;1.70;99.90
44767;DHT22;30487;48.716;9.272;2023-01-23T08:38:52;1.70;99.90
44767;DHT22;30487;48.716;9.272;2023-01-23T08:41:18;1.70;99.90
44767;DHT22;30487;48.716;9.272;2023-01-23T08:43:44;1.70;99.90
44767;DHT22;30487;48.716;9.272;2023-01-23T08:46:10;1.70;99.90
44767;DHT22;30487;48.716;9.272;2023-01-23T08:48:36;1.70;99.90
44767;DHT22;30487;48.716;9.272;2023-01-23T08:51:07;1.80;99.90
44767;DHT22;30487;48.716;9.272;2023-01-23T08:53:33;1.80;99.90
44767;DHT22;30487;48.716;9.272;2023-01-23T08:56:00;1.90;99.90
44767;DHT22;30487;48.716;9.272;2023-01-23T08:58:26;2.10;99.90
44767;DHT22;30487;48.716;9.272;2023-01-23T09:00:52;2.40;99.90
44767;DHT22;30487;48.716;9.272;2023-01-23T09:03:17;2.70;99.90
44767;DHT22;30487;48.716;9.272;2023-01-23T09:05:43;2.90;99.90
44767;DHT22;30487;48.716;9.272;2023-01-23T09:08:09;3.10;99.90
44767;DHT22;30487;48.716;9.272;2023-01-23T09:10:35;3.30;99.90
44767;DHT22;30487;48.716;9.272;2023-01-23T09:13:00;3.40;99.90
44767;DHT22;30487;48.716;9.272;2023-01-23T09:15:26;3.40;99.90
44767;DHT22;30487;48.716;9.272;2023-01-23T09:17:52;3.30;99.90
44767;DHT22;30487;48.716;9.272;2023-01-23T09:20:18;3.30;99.90
44767;DHT22;30487;48.716;9.272;2023-01-23T09:22:43;3.30;99.90
44767;DHT22;30487;48.716;9.272;2023-01-23T09:25:09;3.20;99.90
44767;DHT22;30487;48.716;9.272;2023-01-23T09:27:35;3.20;99.90
44767;DHT22;30487;48.716;9.272;2023-01-23T09:30:01;3.10;99.90
44767;DHT22;30487;48.716;9.272;2023-01-23T09:32:26;3.10;99.90
44767;DHT22;30487;48.716;9.272;2023-01-23T09:34:52;3.10;99.90
44767;DHT22;30487;48.716;9.272;2023-01-23T09:37:19;3.10;99.90
44767;DHT22;30487;48.716;9.272;2023-01-23T09:39:45;3.00;99.90
44767;DHT22;30487;48.716;9.272;2023-01-23T09:42:22;3.00;99.90
44767;DHT22;30487;48.716;9.272;2023-01-23T09:45:02;3.00;99.90
44767;DHT22;30487;48.716;9.272;2023-01-23T09:47:49;3.10;99.90
44767;DHT22;30487;48.716;9.272;2023-01-23T09:50:32;3.10;99.90
44767;DHT22;30487;48.716;9.272;2023-01-23T09:53:15;3.00;99.90
44767;DHT22;30487;48.716;9.272;2023-01-23T09:55:47;3.00;99.90
44767;DHT22;30487;48.716;9.272;2023-01-23T09:58:17;3.00;99.90
44767;DHT22;30487;48.716;9.272;2023-01-23T10:00:44;2.90;99.90
44767;DHT22;30487;48.716;9.272;2023-01-23T10:03:13;3.00;99.90
44767;DHT22;30487;48.716;9.272;2023-01-23T10:05:53;3.00;99.90
44767;DHT22;30487;48.716;9.272;2023-01-23T10:19:22;3.50;99.90
44767;DHT22;30487;48.716;9.272;2023-01-23T10:22:03;3.50;99.90
44767;DHT22;30487;48.716;9.272;2023-01-23T10:24:52;3.60;99.90
44767;DHT22;30487;48.716;9.272;2023-01-23T10:27:25;3.60;99.90
44767;DHT22;30487;48.716;9.272;2023-01-23T10:32:30;3.70;99.90
44767;DHT22;30487;48.716;9.272;2023-01-23T10:35:50;3.60;99.90
44767;DHT22;30487;48.716;9.272;2023-01-23T10:37:52;3.70;99.90
44767;DHT22;30487;48.716;9.272;2023-01-23T10:40:22;3.60;99.90
44767;DHT22;30487;48.716;9.272;2023-01-23T10:43:18;3.60;99.90
44767;DHT22;30487;48.716;9.272;2023-01-23T10:45:45;3.50;99.90
44767;DHT22;30487;48.716;9.272;2023-01-23T10:48:49;3.50;99.90
44767;DHT22;30487;48.716;9.272;2023-01-23T10:54:11;3.50;99.90
44767;DHT22;30487;48.716;9.272;2023-01-23T10:56:57;3.50;99.90
44767;DHT22;30487;48.716;9.272;2023-01-23T10:59:30;3.50;99.90
44767;DHT22;30487;48.716;9.272;2023-01-23T11:02:01;3.50;99.90
44767;DHT22;30487;48.716;9.272;2023-01-23T11:04:30;3.50;99.90
44767;DHT22;30487;48.716;9.272;2023-01-23T11:07:09;3.50;99.90
44767;DHT22;30487;48.716;9.272;2023-01-23T11:12:15;3.50;99.90
44767;DHT22;30487;48.716;9.272;2023-01-23T11:14:41;3.60;99.90
44767;DHT22;30487;48.716;9.272;2023-01-23T11:17:22;3.70;99.90
44767;DHT22;30487;48.716;9.272;2023-01-23T11:19:51;3.70;99.90
44767;DHT22;30487;48.716;9.272;2023-01-23T11:22:36;3.80;99.90
44767;DHT22;30487;48.716;9.272;2023-01-23T11:25:30;3.70;99.90
44767;DHT22;30487;48.716;9.272;2023-01-23T11:28:22;3.80;99.90
44767;DHT22;30487;48.716;9.272;2023-01-23T11:30:55;3.80;99.90
44767;DHT22;30487;48.716;9.272;2023-01-23T11:36:02;3.80;99.90
44767;DHT22;30487;48.716;9.272;2023-01-23T11:38:48;3.80;99.90
44767;DHT22;30487;48.716;9.272;2023-01-23T11:41:15;3.80;99.90
44767;DHT22;30487;48.716;9.272;2023-01-23T11:43:41;3.80;99.90
44767;DHT22;30487;48.716;9.272;2023-01-23T11:46:25;3.80;99.90
44767;DHT22;30487;48.716;9.272;2023-01-23T11:49:21;3.80;99.90
44767;DHT22;30487;48.716;9.272;2023-01-23T11:51:59;3.80;99.90
44767;DHT22;30487;48.716;9.272;2023-01-23T12:06:02;3.80;99.90
44767;DHT22;30487;48.716;9.272;2023-01-23T12:11:19;3.80;99.90
44767;DHT22;30487;48.716;9.272;2023-01-23T12:16:56;3.90;99.90
44767;DHT22;30487;48.716;9.272;2023-01-23T12:22:24;4.10;99.90
44767;DHT22;30487;48.716;9.272;2023-01-23T12:31:06;4.40;99.90
44767;DHT22;30487;48.716;9.272;2023-01-23T12:41:33;4.80;99.90
44767;DHT22;30487;48.716;9.272;2023-01-23T12:47:21;5.10;99.90
44767;DHT22;30487;48.716;9.272;2023-01-23T12:49:59;5.30;99.90
44767;DHT22;30487;48.716;9.272;2023-01-23T12:53:15;5.50;99.90
44767;DHT22;30487;48.716;9.272;2023-01-23T12:57:55;5.60;99.90
44767;DHT22;30487;48.716;9.272;2023-01-23T13:08:09;5.70;99.90
44767;DHT22;30487;48.716;9.272;2023-01-23T13:13:49;5.50;99.90
44767;DHT22;30487;48.716;9.272;2023-01-23T13:16:16;5.60;99.90
44767;DHT22;30487;48.716;9.272;2023-01-23T13:18:56;5.50;99.90
44767;DHT22;30487;48.716;9.272;2023-01-23T13:24:50;5.40;99.90
44767;DHT22;30487;48.716;9.272;2023-01-23T13:27:39;5.30;99.90
44767;DHT22;30487;48.716;9.272;2023-01-23T13:32:46;5.20;99.90
44767;DHT22;30487;48.716;9.272;2023-01-23T13:38:28;5.20;99.90
44767;DHT22;30487;48.716;9.272;2023-01-23T13:43:52;5.20;99.90
44767;DHT22;30487;48.716;9.272;2023-01-23T13:50:07;5.20;99.90
44767;DHT22;30487;48.716;9.272;2023-01-23T13:52:36;5.10;99.90
44767;DHT22;30487;48.716;9.272;2023-01-23T13:55:43;5.10;99.90
44767;DHT22;30487;48.716;9.272;2023-01-23T13:58:29;5.00;99.90
44767;DHT22;30487;48.716;9.272;2023-01-23T14:01:09;4.90;99.90
44767;DHT22;30487;48.716;9.272;2023-01-23T14:04:18;4.90;99.90
44767;DHT22;30487;48.716;9.272;2023-01-23T14:07:05;4.80;99.90
44767;DHT22;30487;48.716;9.272;2023-01-23T14:12:40;4.70;99.90
44767;DHT22;30487;48.716;9.272;2023-01-23T14:15:27;4.70;99.90
44767;DHT22;30487;48.716;9.272;2023-01-23T14:18:29;4.70;99.90
44767;DHT22;30487;48.716;9.272;2023-01-23T14:21:03;4.60;99.90
44767;DHT22;30487;48.716;9.272;2023-01-23T14:23:33;4.60;99.90
44767;DHT22;30487;48.716;9.272;2023-01-23T14:26:01;4.60;99.90
44767;DHT22;30487;48.716;9.272;2023-01-23T14:28:27;4.50;99.90
44767;DHT22;30487;48.716;9.272;2023-01-23T14:30:55;4.50;99.90
44767;DHT22;30487;48.716;9.272;2023-01-23T14:33:21;4.50;99.90
44767;DHT22;30487;48.716;9.272;2023-01-23T14:35:47;4.40;99.90
44767;DHT22;30487;48.716;9.272;2023-01-23T14:38:30;4.40;99.90
44767;DHT22;30487;48.716;9.272;2023-01-23T14:40:57;4.40;99.90
44767;DHT22;30487;48.716;9.272;2023-01-23T14:43:25;4.40;99.90
44767;DHT22;30487;48.716;9.272;2023-01-23T14:45:59;4.40;99.90
44767;DHT22;30487;48.716;9.272;2023-01-23T14:48:26;4.40;99.90
44767;DHT22;30487;48.716;9.272;2023-01-23T14:51:27;4.30;99.90
44767;DHT22;30487;48.716;9.272;2023-01-23T14:54:04;4.30;99.90
44767;DHT22;30487;48.716;9.272;2023-01-23T14:56:32;4.30;99.90
44767;DHT22;30487;48.716;9.272;2023-01-23T14:59:03;4.20;99.90
44767;DHT22;30487;48.716;9.272;2023-01-23T15:01:28;4.20;99.90
44767;DHT22;30487;48.716;9.272;2023-01-23T15:04:06;4.10;99.90
44767;DHT22;30487;48.716;9.272;2023-01-23T15:06:33;4.10;99.90
44767;DHT22;30487;48.716;9.272;2023-01-23T15:09:15;4.00;99.90
44767;DHT22;30487;48.716;9.272;2023-01-23T15:11:43;4.00;99.90
44767;DHT22;30487;48.716;9.272;2023-01-23T15:14:27;4.00;99.90
44767;DHT22;30487;48.716;9.272;2023-01-23T15:17:13;3.90;99.90
44767;DHT22;30487;48.716;9.272;2023-01-23T15:19:41;3.80;99.90
44767;DHT22;30487;48.716;9.272;2023-01-23T15:22:18;3.80;99.90
44767;DHT22;30487;48.716;9.272;2023-01-23T15:24:45;3.80;99.90
44767;DHT22;30487;48.716;9.272;2023-01-23T15:27:30;3.70;99.90
44767;DHT22;30487;48.716;9.272;2023-01-23T15:33:01;3.70;99.90
44767;DHT22;30487;48.716;9.272;2023-01-23T15:35:35;3.60;99.90
44767;DHT22;30487;48.716;9.272;2023-01-23T15:38:02;3.60;99.90
44767;DHT22;30487;48.716;9.272;2023-01-23T15:40:33;3.60;99.90
44767;DHT22;30487;48.716;9.272;2023-01-23T15:43:05;3.50;99.90
44767;DHT22;30487;48.716;9.272;2023-01-23T15:45:34;3.60;99.90
44767;DHT22;30487;48.716;9.272;2023-01-23T15:48:00;3.50;99.90
44767;DHT22;30487;48.716;9.272;2023-01-23T15:50:26;3.50;99.90
44767;DHT22;30487;48.716;9.272;2023-01-23T15:52:53;3.50;99.90
44767;DHT22;30487;48.716;9.272;2023-01-23T15:55:20;3.50;99.90
44767;DHT22;30487;48.716;9.272;2023-01-23T15:57:47;3.40;99.90
44767;DHT22;30487;48.716;9.272;2023-01-23T16:00:16;3.40;99.90
44767;DHT22;30487;48.716;9.272;2023-01-23T16:02:42;3.40;99.90
44767;DHT22;30487;48.716;9.272;2023-01-23T16:05:08;3.40;99.90
44767;DHT22;30487;48.716;9.272;2023-01-23T16:07:36;3.40;99.90
44767;DHT22;30487;48.716;9.272;2023-01-23T16:10:09;3.40;99.90
44767;DHT22;30487;48.716;9.272;2023-01-23T16:12:39;3.40;99.90
44767;DHT22;30487;48.716;9.272;2023-01-23T16:15:29;3.40;99.90
44767;DHT22;30487;48.716;9.272;2023-01-23T16:17:56;3.40;99.90
44767;DHT22;30487;48.716;9.272;2023-01-23T16:20:27;3.30;99.90
44767;DHT22;30487;48.716;9.272;2023-01-23T16:22:56;3.30;99.90
44767;DHT22;30487;48.716;9.272;2023-01-23T16:25:31;3.30;99.90
44767;DHT22;30487;48.716;9.272;2023-01-23T16:27:58;3.30;99.90
44767;DHT22;30487;48.716;9.272;2023-01-23T16:30:25;3.30;99.90
44767;DHT22;30487;48.716;9.272;2023-01-23T16:32:54;3.30;99.90
44767;DHT22;30487;48.716;9.272;2023-01-23T16:35:21;3.20;99.90
44767;DHT22;30487;48.716;9.272;2023-01-23T16:37:51;3.30;99.90
44767;DHT22;30487;48.716;9.272;2023-01-23T16:40:26;3.30;99.90
44767;DHT22;30487;48.716;9.272;2023-01-23T16:42:54;3.20;99.90
44767;DHT22;30487;48.716;9.272;2023-01-23T16:45:28;3.20;99.90
44767;DHT22;30487;48.716;9.272;2023-01-23T16:47:54;3.20;99.90
44767;DHT22;30487;48.716;9.272;2023-01-23T16:50:25;3.20;99.90
44767;DHT22;30487;48.716;9.272;2023-01-23T16:52:57;3.20;99.90
44767;DHT22;30487;48.716;9.272;2023-01-23T16:55:28;3.20;99.90
44767;DHT22;30487;48.716;9.272;2023-01-23T16:57:55;3.10;99.90
44767;DHT22;30487;48.716;9.272;2023-01-23T17:00:22;3.10;99.90
44767;DHT22;30487;48.716;9.272;2023-01-23T17:02:51;3.10;99.90
44767;DHT22;30487;48.716;9.272;2023-01-23T17:05:17;3.20;99.90
44767;DHT22;30487;48.716;9.272;2023-01-23T17:07:43;3.10;99.90
44767;DHT22;30487;48.716;9.272;2023-01-23T17:10:19;3.10;99.90
44767;DHT22;30487;48.716;9.272;2023-01-23T17:12:46;3.10;99.90
44767;DHT22;30487;48.716;9.272;2023-01-23T17:15:20;3.10;99.90
44767;DHT22;30487;48.716;9.272;2023-01-23T17:17:48;3.10;99.90
44767;DHT22;30487;48.716;9.272;2023-01-23T17:20:16;3.10;99.90
44767;DHT22;30487;48.716;9.272;2023-01-23T17:22:41;3.10;99.90
44767;DHT22;30487;48.716;9.272;2023-01-23T17:25:18;3.10;99.90
44767;DHT22;30487;48.716;9.272;2023-01-23T17:27:44;3.10;99.90
44767;DHT22;30487;48.716;9.272;2023-01-23T17:30:20;3.10;99.90
44767;DHT22;30487;48.716;9.272;2023-01-23T17:32:49;3.10;99.90
44767;DHT22;30487;48.716;9.272;2023-01-23T17:35:44;3.10;99.90
44767;DHT22;30487;48.716;9.272;2023-01-23T17:38:21;3.10;99.90
44767;DHT22;30487;48.716;9.272;2023-01-23T17:40:48;3.10;99.90
44767;DHT22;30487;48.716;9.272;2023-01-23T17:43:15;3.10;99.90
44767;DHT22;30487;48.716;9.272;2023-01-23T17:45:43;3.10;99.90